sensor_id;sensor_type;location;lat;lon;timestamp;pressure;altitude;pressure_sealevel;temperature;humidity
55858;BME280;41779;52.360;31.026;2022-10-16T00:04:23;1037.5;;;10;50.3
55858;BME280;41779;52.360;31.026;2022-10-16T00:09:05;1037.5;;;10;50.4
55858;BME280;41779;52.360;31.026;2022-10-16T00:13:46;1037.5;;;9.9;50.8
55858;BME280;41779;52.360;31.026;2022-10-16T00:18:59;1037.6;;;9.9;50.9
55858;BME280;41779;52.360;31.026;2022-10-16T00:24:27;1037.6;;;9.9;50.7
55858;BME280;41779;52.360;31.026;2022-10-16T00:29:09;1037.6;;;9.8;50.7
55858;BME280;41779;52.360;31.026;2022-10-16T00:34:09;1037.6;;;9.8;51
55858;BME280;41779;52.360;31.026;2022-10-16T00:38:57;1037.7;;;9.8;51.2
55858;BME280;41779;52.360;31.026;2022-10-16T00:44:48;1037.7;;;9.7;51.2
55858;BME280;41779;52.360;31.026;2022-10-16T00:49:19;1037.8;;;9.7;51.1
55858;BME280;41779;52.360;31.026;2022-10-16T00:54:26;1037.8;;;9.7;51.1
55858;BME280;41779;52.360;31.026;2022-10-16T00:58:48;1037.9;;;9.6;51.4
55858;BME280;41779;52.360;31.026;2022-10-16T01:04:28;1037.9;;;9.5;51.7
55858;BME280;41779;52.360;31.026;2022-10-16T01:08:48;1037.9;;;9.5;51.6
55858;BME280;41779;52.360;31.026;2022-10-16T01:14:06;1037.9;;;9.5;51.5
55858;BME280;41779;52.360;31.026;2022-10-16T01:19:32;1037.9;;;9.5;51.6
55858;BME280;41779;52.360;31.026;2022-10-16T01:24:25;1038;;;9.4;51.9
55858;BME280;41779;52.360;31.026;2022-10-16T01:29:28;1038;;;9.3;52
55858;BME280;41779;52.360;31.026;2022-10-16T01:33:56;1038;;;9.3;51.9
55858;BME280;41779;52.360;31.026;2022-10-16T01:39:08;1038;;;9.2;51.8
55858;BME280;41779;52.360;31.026;2022-10-16T01:43:46;1038;;;9.1;52.2
55858;BME280;41779;52.360;31.026;2022-10-16T01:49:21;1038;;;9.1;52.4
55858;BME280;41779;52.360;31.026;2022-10-16T01:54:06;1038.1;;;9.1;52.3
55858;BME280;41779;52.360;31.026;2022-10-16T01:58:58;1038.1;;;9;52.1
55858;BME280;41779;52.360;31.026;2022-10-16T02:03:56;1038.1;;;9;52.3
55858;BME280;41779;52.360;31.026;2022-10-16T02:09:21;1038.1;;;9;52.5
55858;BME280;41779;52.360;31.026;2022-10-16T02:14:25;1038.1;;;9;52.3
55858;BME280;41779;52.360;31.026;2022-10-16T02:18:57;1038.1;;;9;52
55858;BME280;41779;52.360;31.026;2022-10-16T02:24:17;1038.2;;;9;52.1
55858;BME280;41779;52.360;31.026;2022-10-16T02:29:16;1038.2;;;8.9;52.3
55858;BME280;41779;52.360;31.026;2022-10-16T02:34:25;1038.2;;;8.9;52.2
55858;BME280;41779;52.360;31.026;2022-10-16T02:38:45;1038.3;;;8.9;52.1
55858;BME280;41779;52.360;31.026;2022-10-16T02:43:45;1038.3;;;8.9;52.2
55858;BME280;41779;52.360;31.026;2022-10-16T02:48:45;1038.3;;;8.9;52.4
55858;BME280;41779;52.360;31.026;2022-10-16T02:53:57;1038.3;;;8.8;52.5
55858;BME280;41779;52.360;31.026;2022-10-16T02:59:29;1038.3;;;8.7;52.5
55858;BME280;41779;52.360;31.026;2022-10-16T03:04:09;1038.3;;;8.6;52.9
55858;BME280;41779;52.360;31.026;2022-10-16T03:09:19;1038.3;;;8.6;53.2
55858;BME280;41779;52.360;31.026;2022-10-16T03:14:19;1038.4;;;8.5;53.1
55858;BME280;41779;52.360;31.026;2022-10-16T03:19:29;1038.4;;;8.4;53.4
55858;BME280;41779;52.360;31.026;2022-10-16T03:24:19;1038.4;;;8.3;53.9
55858;BME280;41779;52.360;31.026;2022-10-16T03:29:31;1038.4;;;8.3;53.9
55858;BME280;41779;52.360;31.026;2022-10-16T03:33:45;1038.5;;;8.3;53.8
55858;BME280;41779;52.360;31.026;2022-10-16T03:38:57;1038.5;;;8.2;54.3
55858;BME280;41779;52.360;31.026;2022-10-16T03:43:59;1038.5;;;8.1;54.7
55858;BME280;41779;52.360;31.026;2022-10-16T03:49:19;1038.6;;;8.1;54.6
55858;BME280;41779;52.360;31.026;2022-10-16T03:54:31;1038.5;;;8;54.7
55858;BME280;41779;52.360;31.026;2022-10-16T03:58:45;1038.5;;;8;55.4
55858;BME280;41779;52.360;31.026;2022-10-16T04:04:19;1038.6;;;7.9;55.8
55858;BME280;41779;52.360;31.026;2022-10-16T04:09:17;1038.6;;;7.8;55.7
55858;BME280;41779;52.360;31.026;2022-10-16T04:13:53;1038.7;;;7.7;56
55858;BME280;41779;52.360;31.026;2022-10-16T04:19:10;1038.8;;;7.7;56.7
55858;BME280;41779;52.360;31.026;2022-10-16T04:23:45;1038.8;;;7.7;56.4
55858;BME280;41779;52.360;31.026;2022-10-16T04:28:45;1038.9;;;7.8;56.2
55858;BME280;41779;52.360;31.026;2022-10-16T04:33:45;1038.9;;;7.8;56.5
55858;BME280;41779;52.360;31.026;2022-10-16T04:38:55;1038.9;;;7.8;56.6
55858;BME280;41779;52.360;31.026;2022-10-16T04:44:31;1038.9;;;7.8;56.2
55858;BME280;41779;52.360;31.026;2022-10-16T04:49:21;1039;;;7.8;56.1
55858;BME280;41779;52.360;31.026;2022-10-16T04:54:08;1039.1;;;7.8;56.4
55858;BME280;41779;52.360;31.026;2022-10-16T04:58:57;1039.2;;;7.8;56.3
55858;BME280;41779;52.360;31.026;2022-10-16T05:04:33;1039.2;;;7.9;56
55858;BME280;41779;52.360;31.026;2022-10-16T05:09:33;1039.2;;;8;55.6
55858;BME280;41779;52.360;31.026;2022-10-16T05:14:11;1039.3;;;8.2;54.9
55858;BME280;41779;52.360;31.026;2022-10-16T05:19:11;1039.4;;;8.3;54.9
55858;BME280;41779;52.360;31.026;2022-10-16T05:23:45;1039.5;;;8.3;54.6
55858;BME280;41779;52.360;31.026;2022-10-16T05:29:21;1039.5;;;8.3;54.3
55858;BME280;41779;52.360;31.026;2022-10-16T05:34:11;1039.5;;;8.4;54.1
55858;BME280;41779;52.360;31.026;2022-10-16T05:39:21;1039.6;;;8.5;54
55858;BME280;41779;52.360;31.026;2022-10-16T05:44:33;1039.6;;;8.6;53.8
55858;BME280;41779;52.360;31.026;2022-10-16T05:49:33;1039.6;;;8.6;53.3
55858;BME280;41779;52.360;31.026;2022-10-16T05:54:21;1039.7;;;8.7;53.2
55858;BME280;41779;52.360;31.026;2022-10-16T05:59:33;1039.7;;;8.8;53.1
55858;BME280;41779;52.360;31.026;2022-10-16T06:03:45;1039.7;;;9;52.7
55858;BME280;41779;52.360;31.026;2022-10-16T06:08:57;1039.8;;;9.1;52.2
55858;BME280;41779;52.360;31.026;2022-10-16T06:13:56;1039.9;;;9.3;52
55858;BME280;41779;52.360;31.026;2022-10-16T06:18:58;1040;;;9.5;51.7
55858;BME280;41779;52.360;31.026;2022-10-16T06:24:31;1040;;;10.1;51.1
55858;BME280;41779;52.360;31.026;2022-10-16T06:28:45;1039.9;;;12.5;46.3
55858;BME280;41779;52.360;31.026;2022-10-16T06:34:21;1039.7;;;15.5;40.5
55858;BME280;41779;52.360;31.026;2022-10-16T06:39:21;1039.6;;;18.1;36.8
55858;BME280;41779;52.360;31.026;2022-10-16T06:44:09;1039.5;;;20.1;35.6
55858;BME280;41779;52.360;31.026;2022-10-16T06:49:09;1039.5;;;21.7;34
55858;BME280;41779;52.360;31.026;2022-10-16T06:53:57;1039.5;;;23;31.9
55858;BME280;41779;52.360;31.026;2022-10-16T06:58:46;1039.5;;;24;30.3
55858;BME280;41779;52.360;31.026;2022-10-16T07:03:45;1039.5;;;24.8;25.8
55858;BME280;41779;52.360;31.026;2022-10-16T07:09:11;1039.5;;;24.3;24.9
55858;BME280;41779;52.360;31.026;2022-10-16T07:14:31;1039.6;;;22.2;26.4
55858;BME280;41779;52.360;31.026;2022-10-16T07:19:34;1039.7;;;20;28.7
55858;BME280;41779;52.360;31.026;2022-10-16T07:24:10;1039.9;;;18.3;31
55858;BME280;41779;52.360;31.026;2022-10-16T07:29:11;1039.9;;;17.4;32.3
55858;BME280;41779;52.360;31.026;2022-10-16T07:34:20;1039.9;;;17.6;32.8
55858;BME280;41779;52.360;31.026;2022-10-16T07:39:31;1039.8;;;18.2;32.6
55858;BME280;41779;52.360;31.026;2022-10-16T07:44:09;1039.8;;;18.8;31.7
55858;BME280;41779;52.360;31.026;2022-10-16T07:48:59;1039.8;;;19.4;30.7
55858;BME280;41779;52.360;31.026;2022-10-16T07:54:01;1039.7;;;20.1;29.5
55858;BME280;41779;52.360;31.026;2022-10-16T07:59:21;1039.7;;;21.5;28.8
55858;BME280;41779;52.360;31.026;2022-10-16T08:04:11;1039.6;;;23.6;27.2
55858;BME280;41779;52.360;31.026;2022-10-16T08:09:08;1039.6;;;25.3;25.9
55858;BME280;41779;52.360;31.026;2022-10-16T08:14:20;1039.5;;;27.4;24.4
55858;BME280;41779;52.360;31.026;2022-10-16T08:19:21;1039.4;;;28.3;22.7
55858;BME280;41779;52.360;31.026;2022-10-16T08:24:23;1039.4;;;28.8;21.2
55858;BME280;41779;52.360;31.026;2022-10-16T08:29:25;1039.4;;;29.6;19.3
55858;BME280;41779;52.360;31.026;2022-10-16T08:34:09;1039.4;;;30.1;18.2
55858;BME280;41779;52.360;31.026;2022-10-16T08:38:55;1039.4;;;30.5;17.5
55858;BME280;41779;52.360;31.026;2022-10-16T08:44:06;1039.3;;;30.8;17.1
55858;BME280;41779;52.360;31.026;2022-10-16T08:49:31;1039.2;;;31;16.9
55858;BME280;41779;52.360;31.026;2022-10-16T08:54:16;1039.3;;;30.9;17
55858;BME280;41779;52.360;31.026;2022-10-16T08:59:23;1039.1;;;31.4;17.1
55858;BME280;41779;52.360;31.026;2022-10-16T09:04:40;1039.1;;;31.3;17.2
55858;BME280;41779;52.360;31.026;2022-10-16T09:09:32;1039;;;31.5;17
55858;BME280;41779;52.360;31.026;2022-10-16T09:14:17;1039;;;31;17.1
55858;BME280;41779;52.360;31.026;2022-10-16T09:19:13;1039;;;31.1;17.3
55858;BME280;41779;52.360;31.026;2022-10-16T09:24:24;1039.1;;;30.7;16.7
55858;BME280;41779;52.360;31.026;2022-10-16T09:28:43;1039.1;;;30.2;16.5
55858;BME280;41779;52.360;31.026;2022-10-16T09:34:00;1039.1;;;29.1;16.9
55858;BME280;41779;52.360;31.026;2022-10-16T09:39:03;1039.1;;;26.9;18.6
55858;BME280;41779;52.360;31.026;2022-10-16T09:44:33;1039.1;;;26.2;19.3
55858;BME280;41779;52.360;31.026;2022-10-16T09:49:33;1039.2;;;26.3;19.5
55858;BME280;41779;52.360;31.026;2022-10-16T09:53:55;1039.3;;;26.3;19.6
55858;BME280;41779;52.360;31.026;2022-10-16T09:58:55;1039.4;;;25.4;20.1
55858;BME280;41779;52.360;31.026;2022-10-16T10:04:13;1039.4;;;25;20.6
55858;BME280;41779;52.360;31.026;2022-10-16T10:09:34;1039.5;;;25;20.8
55858;BME280;41779;52.360;31.026;2022-10-16T10:14:27;1039.4;;;25.3;21
55858;BME280;41779;52.360;31.026;2022-10-16T10:18:45;1039.3;;;25.6;21
55858;BME280;41779;52.360;31.026;2022-10-16T10:24:09;1039.3;;;26.3;20.5
55858;BME280;41779;52.360;31.026;2022-10-16T10:29:28;1039.3;;;26.2;20.2
55858;BME280;41779;52.360;31.026;2022-10-16T10:34:17;1039.3;;;25.9;20.5
55858;BME280;41779;52.360;31.026;2022-10-16T10:39:12;1039.3;;;25.3;21.1
55858;BME280;41779;52.360;31.026;2022-10-16T10:44:24;1039.3;;;25.4;21.1
55858;BME280;41779;52.360;31.026;2022-10-16T10:49:27;1039.2;;;26.9;19.8
55858;BME280;41779;52.360;31.026;2022-10-16T10:54:26;1039.3;;;28.3;18.6
55858;BME280;41779;52.360;31.026;2022-10-16T10:59:45;1039.3;;;28;18.8
55858;BME280;41779;52.360;31.026;2022-10-16T11:03:57;1039.3;;;26.5;19.9
55858;BME280;41779;52.360;31.026;2022-10-16T11:09:23;1039.3;;;25.4;20.6
55858;BME280;41779;52.360;31.026;2022-10-16T11:14:00;1039.4;;;24.3;21.1
55858;BME280;41779;52.360;31.026;2022-10-16T11:19:10;1039.4;;;23.3;22
55858;BME280;41779;52.360;31.026;2022-10-16T11:24:30;1039.3;;;22.4;23
55858;BME280;41779;52.360;31.026;2022-10-16T11:29:26;1039.4;;;21.7;24.1
55858;BME280;41779;52.360;31.026;2022-10-16T11:34:22;1039.4;;;21.5;24.6
55858;BME280;41779;52.360;31.026;2022-10-16T11:38:55;1039.4;;;21.3;24.8
55858;BME280;41779;52.360;31.026;2022-10-16T11:44:15;1039.4;;;21.1;25
55858;BME280;41779;52.360;31.026;2022-10-16T11:49:12;1039.3;;;20.8;25.2
55858;BME280;41779;52.360;31.026;2022-10-16T11:54:27;1039.3;;;20.6;25.4
55858;BME280;41779;52.360;31.026;2022-10-16T11:59:02;1039.3;;;20.4;26.1
55858;BME280;41779;52.360;31.026;2022-10-16T12:04:14;1039.2;;;20.2;26.7
55858;BME280;41779;52.360;31.026;2022-10-16T12:09:00;1039.1;;;20;27.2
55858;BME280;41779;52.360;31.026;2022-10-16T12:14:06;1039;;;20;27.3
55858;BME280;41779;52.360;31.026;2022-10-16T12:19:38;1039;;;20.1;27.3
55858;BME280;41779;52.360;31.026;2022-10-16T12:24:39;1039.1;;;19.9;27.3
55858;BME280;41779;52.360;31.026;2022-10-16T12:28:54;1039.1;;;19.7;27.8
55858;BME280;41779;52.360;31.026;2022-10-16T12:34:14;1039;;;19.4;28.4
55858;BME280;41779;52.360;31.026;2022-10-16T12:39:36;1039;;;19.1;28.9
55858;BME280;41779;52.360;31.026;2022-10-16T12:44:34;1039;;;19.2;29.1
55858;BME280;41779;52.360;31.026;2022-10-16T12:49:22;1039;;;19.2;28.8
55858;BME280;41779;52.360;31.026;2022-10-16T12:53:59;1039;;;19.2;28.8
55858;BME280;41779;52.360;31.026;2022-10-16T12:59:34;1039;;;19.5;28.7
55858;BME280;41779;52.360;31.026;2022-10-16T13:04:29;1039.1;;;19.6;28.9
55858;BME280;41779;52.360;31.026;2022-10-16T13:09:02;1039.1;;;19.8;28.8
55858;BME280;41779;52.360;31.026;2022-10-16T13:14:22;1039;;;19.9;28.6
55858;BME280;41779;52.360;31.026;2022-10-16T13:19:21;1039.1;;;19.7;28.7
55858;BME280;41779;52.360;31.026;2022-10-16T13:24:40;1039.1;;;19.4;29
55858;BME280;41779;52.360;31.026;2022-10-16T13:29:24;1039;;;19.1;29.4
55858;BME280;41779;52.360;31.026;2022-10-16T13:34:41;1039;;;18.8;30
55858;BME280;41779;52.360;31.026;2022-10-16T13:38:46;1039;;;18.3;31
55858;BME280;41779;52.360;31.026;2022-10-16T13:44:24;1039;;;18;31.6
55858;BME280;41779;52.360;31.026;2022-10-16T13:49:14;1039;;;17.9;31.9
55858;BME280;41779;52.360;31.026;2022-10-16T13:54:24;1039;;;17.7;31.9
55858;BME280;41779;52.360;31.026;2022-10-16T13:59:36;1039.1;;;17.5;32.1
55858;BME280;41779;52.360;31.026;2022-10-16T14:04:06;1039.1;;;17.4;32.4
55858;BME280;41779;52.360;31.026;2022-10-16T14:08:50;1039;;;17.1;33.3
55858;BME280;41779;52.360;31.026;2022-10-16T14:14:24;1039;;;16.8;33.9
55858;BME280;41779;52.360;31.026;2022-10-16T14:19:26;1038.9;;;16.6;34.4
55858;BME280;41779;52.360;31.026;2022-10-16T14:23:58;1038.9;;;16.3;34.4
55858;BME280;41779;52.360;31.026;2022-10-16T14:29:01;1038.8;;;16.1;34.7
55858;BME280;41779;52.360;31.026;2022-10-16T14:34:39;1038.8;;;15.9;35
55858;BME280;41779;52.360;31.026;2022-10-16T14:38:48;1038.8;;;15.8;36
55858;BME280;41779;52.360;31.026;2022-10-16T14:43:56;1038.8;;;15.6;36.8
55858;BME280;41779;52.360;31.026;2022-10-16T14:49:36;1038.8;;;15.5;37
55858;BME280;41779;52.360;31.026;2022-10-16T14:54:22;1038.9;;;15.4;37
55858;BME280;41779;52.360;31.026;2022-10-16T14:59:08;1038.8;;;15.3;36.8
55858;BME280;41779;52.360;31.026;2022-10-16T15:04:10;1038.9;;;15.2;36.9
55858;BME280;41779;52.360;31.026;2022-10-16T15:09:36;1038.9;;;15.1;37.4
55858;BME280;41779;52.360;31.026;2022-10-16T15:14:36;1038.9;;;15;37.9
55858;BME280;41779;52.360;31.026;2022-10-16T15:19:02;1039;;;14.9;38.1
55858;BME280;41779;52.360;31.026;2022-10-16T15:23:46;1039.2;;;14.9;38
55858;BME280;41779;52.360;31.026;2022-10-16T15:28:54;1039.4;;;14.9;37.8
55858;BME280;41779;52.360;31.026;2022-10-16T15:33:46;1039.4;;;14.8;37.8
55858;BME280;41779;52.360;31.026;2022-10-16T15:39:13;1039.4;;;14.7;38.4
55858;BME280;41779;52.360;31.026;2022-10-16T15:44:22;1039.5;;;14.6;38.7
55858;BME280;41779;52.360;31.026;2022-10-16T15:49:24;1039.6;;;14.5;38.8
55858;BME280;41779;52.360;31.026;2022-10-16T15:54:36;1039.5;;;14.5;38.8
55858;BME280;41779;52.360;31.026;2022-10-16T15:59:34;1039.4;;;14.3;38.7
55858;BME280;41779;52.360;31.026;2022-10-16T16:04:36;1039.3;;;14.2;38.9
55858;BME280;41779;52.360;31.026;2022-10-16T16:08:46;1039.2;;;14;39.2
55858;BME280;41779;52.360;31.026;2022-10-16T16:14:00;1039.1;;;13.9;39.9
55858;BME280;41779;52.360;31.026;2022-10-16T16:18:46;1039.2;;;13.8;40.3
55858;BME280;41779;52.360;31.026;2022-10-16T16:24:20;1039.4;;;13.7;40.6
55858;BME280;41779;52.360;31.026;2022-10-16T16:29:32;1039.6;;;13.7;40.5
55858;BME280;41779;52.360;31.026;2022-10-16T16:34:22;1039.7;;;13.6;40.9
55858;BME280;41779;52.360;31.026;2022-10-16T16:39:36;1039.7;;;13.7;40.9
55858;BME280;41779;52.360;31.026;2022-10-16T16:44:20;1039.8;;;13.7;40.6
55858;BME280;41779;52.360;31.026;2022-10-16T16:48:46;1039.9;;;13.6;40.5
55858;BME280;41779;52.360;31.026;2022-10-16T16:54:00;1040;;;13.6;40.7
55858;BME280;41779;52.360;31.026;2022-10-16T16:59:14;1040;;;13.5;41.1
55858;BME280;41779;52.360;31.026;2022-10-16T17:04:00;1040;;;13.5;41.3
55858;BME280;41779;52.360;31.026;2022-10-16T17:08:58;1039.9;;;13.5;41.3
55858;BME280;41779;52.360;31.026;2022-10-16T17:13:57;1039.9;;;13.4;41.3
55858;BME280;41779;52.360;31.026;2022-10-16T17:19:32;1039.9;;;13.4;41.2
55858;BME280;41779;52.360;31.026;2022-10-16T17:24:32;1040;;;13.3;41.3
55858;BME280;41779;52.360;31.026;2022-10-16T17:29:10;1040;;;13.2;41.8
55858;BME280;41779;52.360;31.026;2022-10-16T17:33:46;1040.1;;;13.1;42.2
55858;BME280;41779;52.360;31.026;2022-10-16T17:39:32;1040.2;;;13.1;42.3
55858;BME280;41779;52.360;31.026;2022-10-16T17:44:32;1040.2;;;13;42.1
55858;BME280;41779;52.360;31.026;2022-10-16T17:49:12;1040.1;;;13;42
55858;BME280;41779;52.360;31.026;2022-10-16T17:53:56;1040.1;;;12.9;42.4
55858;BME280;41779;52.360;31.026;2022-10-16T17:58:47;1040;;;12.8;42.8
55858;BME280;41779;52.360;31.026;2022-10-16T18:04:24;1039.9;;;12.7;42.8
55858;BME280;41779;52.360;31.026;2022-10-16T18:09:08;1039.9;;;12.6;42.6
55858;BME280;41779;52.360;31.026;2022-10-16T18:13:55;1039.8;;;12.6;42.6
55858;BME280;41779;52.360;31.026;2022-10-16T18:19:24;1039.9;;;12.6;42.8
55858;BME280;41779;52.360;31.026;2022-10-16T18:24:22;1040;;;12.6;42.6
55858;BME280;41779;52.360;31.026;2022-10-16T18:29:22;1040.1;;;12.7;42.6
55858;BME280;41779;52.360;31.026;2022-10-16T18:34:36;1040.1;;;12.8;42.5
55858;BME280;41779;52.360;31.026;2022-10-16T18:39:24;1040;;;12.8;42.5
55858;BME280;41779;52.360;31.026;2022-10-16T18:44:24;1040.1;;;12.7;42.5
55858;BME280;41779;52.360;31.026;2022-10-16T18:49:10;1040.1;;;12.6;42.5
55858;BME280;41779;52.360;31.026;2022-10-16T18:54:36;1040.1;;;12.6;42.6
55858;BME280;41779;52.360;31.026;2022-10-16T18:59:36;1040.1;;;12.6;42.8
55858;BME280;41779;52.360;31.026;2022-10-16T19:04:24;1040.1;;;12.6;42.8
55858;BME280;41779;52.360;31.026;2022-10-16T19:09:34;1040.2;;;12.5;42.8
55858;BME280;41779;52.360;31.026;2022-10-16T19:14:20;1040.2;;;12.4;42.9
55858;BME280;41779;52.360;31.026;2022-10-16T19:19:14;1040.2;;;12.3;43.4
55858;BME280;41779;52.360;31.026;2022-10-16T19:24:12;1040.3;;;12.3;43.3
55858;BME280;41779;52.360;31.026;2022-10-16T19:29:24;1040.4;;;12.3;43.1
55858;BME280;41779;52.360;31.026;2022-10-16T19:33:46;1040.3;;;12.3;43.1
55858;BME280;41779;52.360;31.026;2022-10-16T19:38:46;1040.3;;;12.2;43.4
55858;BME280;41779;52.360;31.026;2022-10-16T19:44:07;1040.4;;;12.2;43.4
55858;BME280;41779;52.360;31.026;2022-10-16T19:49:34;1040.4;;;12.2;43.3
55858;BME280;41779;52.360;31.026;2022-10-16T19:54:36;1040.3;;;12.2;43.3
55858;BME280;41779;52.360;31.026;2022-10-16T19:58:46;1040.3;;;12.1;43.5
55858;BME280;41779;52.360;31.026;2022-10-16T20:03:56;1040.3;;;12.1;43.6
55858;BME280;41779;52.360;31.026;2022-10-16T20:09:22;1040.3;;;12.1;43.6
55858;BME280;41779;52.360;31.026;2022-10-16T20:14:34;1040.3;;;12;43.6
55858;BME280;41779;52.360;31.026;2022-10-16T20:19:12;1040.3;;;12;43.7
55858;BME280;41779;52.360;31.026;2022-10-16T20:23:52;1040.3;;;11.9;44.1
55858;BME280;41779;52.360;31.026;2022-10-16T20:29:00;1040.4;;;11.8;44.3
55858;BME280;41779;52.360;31.026;2022-10-16T20:34:24;1040.4;;;11.8;44.2
55858;BME280;41779;52.360;31.026;2022-10-16T20:38:46;1040.3;;;11.7;44.1
55858;BME280;41779;52.360;31.026;2022-10-16T20:44:10;1040.3;;;11.7;44.6
55858;BME280;41779;52.360;31.026;2022-10-16T20:49:26;1040.2;;;11.6;44.8
55858;BME280;41779;52.360;31.026;2022-10-16T20:54:38;1040.2;;;11.6;44.9
55858;BME280;41779;52.360;31.026;2022-10-16T20:59:24;1040.3;;;11.7;44.7
55858;BME280;41779;52.360;31.026;2022-10-16T21:04:36;1040.3;;;11.8;44.6
55858;BME280;41779;52.360;31.026;2022-10-16T21:09:24;1040.4;;;11.8;44.6
55858;BME280;41779;52.360;31.026;2022-10-16T21:13:46;1040.4;;;11.8;44.5
55858;BME280;41779;52.360;31.026;2022-10-16T21:19:14;1040.5;;;11.9;44.3
55858;BME280;41779;52.360;31.026;2022-10-16T21:24:00;1040.6;;;11.9;44.1
55858;BME280;41779;52.360;31.026;2022-10-16T21:29:34;1040.5;;;11.9;44.2
55858;BME280;41779;52.360;31.026;2022-10-16T21:34:34;1040.5;;;11.9;44.2
55858;BME280;41779;52.360;31.026;2022-10-16T21:38:59;1040.4;;;12;44.1
55858;BME280;41779;52.360;31.026;2022-10-16T21:44:36;1040.4;;;12;44.1
55858;BME280;41779;52.360;31.026;2022-10-16T21:49:24;1040.4;;;11.9;44.1
55858;BME280;41779;52.360;31.026;2022-10-16T21:54:24;1040.4;;;11.9;44.5
55858;BME280;41779;52.360;31.026;2022-10-16T21:59:26;1040.4;;;11.8;44.7
55858;BME280;41779;52.360;31.026;2022-10-16T22:04:02;1040.5;;;11.8;44.6
55858;BME280;41779;52.360;31.026;2022-10-16T22:08:46;1040.5;;;11.8;44.6
55858;BME280;41779;52.360;31.026;2022-10-16T22:13:46;1040.5;;;11.8;44.9
55858;BME280;41779;52.360;31.026;2022-10-16T22:19:26;1040.5;;;11.8;45
55858;BME280;41779;52.360;31.026;2022-10-16T22:24:36;1040.5;;;11.9;44.8
55858;BME280;41779;52.360;31.026;2022-10-16T22:29:36;1040.5;;;11.9;44.7
55858;BME280;41779;52.360;31.026;2022-10-16T22:34:11;1040.4;;;11.9;44.9
55858;BME280;41779;52.360;31.026;2022-10-16T22:38:58;1040.3;;;11.9;45
55858;BME280;41779;52.360;31.026;2022-10-16T22:44:34;1040.4;;;11.9;45
55858;BME280;41779;52.360;31.026;2022-10-16T22:49:34;1040.4;;;11.8;45
55858;BME280;41779;52.360;31.026;2022-10-16T22:53:46;1040.4;;;11.8;45.2
55858;BME280;41779;52.360;31.026;2022-10-16T22:58:44;1040.4;;;11.8;45.5
55858;BME280;41779;52.360;31.026;2022-10-16T23:03:52;1040.4;;;11.7;45.7
55858;BME280;41779;52.360;31.026;2022-10-16T23:09:24;1040.4;;;11.7;45.6
55858;BME280;41779;52.360;31.026;2022-10-16T23:14:10;1040.4;;;11.7;45.6
55858;BME280;41779;52.360;31.026;2022-10-16T23:19:12;1040.5;;;11.7;46.1
55858;BME280;41779;52.360;31.026;2022-10-16T23:24:18;1040.5;;;11.7;46.2
55858;BME280;41779;52.360;31.026;2022-10-16T23:29:30;1040.5;;;11.7;46.1
55858;BME280;41779;52.360;31.026;2022-10-16T23:34:20;1040.5;;;11.7;46
55858;BME280;41779;52.360;31.026;2022-10-16T23:39:28;1040.6;;;11.7;46.2
55858;BME280;41779;52.360;31.026;2022-10-16T23:43:58;1040.7;;;11.6;46.6
55858;BME280;41779;52.360;31.026;2022-10-16T23:48:44;1040.6;;;11.7;46.6
55858;BME280;41779;52.360;31.026;2022-10-16T23:54:10;1040.5;;;11.7;46.5
55858;BME280;41779;52.360;31.026;2022-10-16T23:58:48;1040.4;;;11.7;46.5
